sensor_id;sensor_type;location;lat;lon;timestamp;P1;durP1;ratioP1;P2;durP2;ratioP2
61673;SDS011;47573;43.832;5.974;2022-12-29T00:01:09;844.08;;;621.05;;
61673;SDS011;47573;43.832;5.974;2022-12-29T00:02:50;846.50;;;618.25;;
61673;SDS011;47573;43.832;5.974;2022-12-29T00:04:31;838.17;;;615.72;;
61673;SDS011;47573;43.832;5.974;2022-12-29T00:06:11;831.33;;;608.20;;
61673;SDS011;47573;43.832;5.974;2022-12-29T00:07:52;832.53;;;600.65;;
61673;SDS011;47573;43.832;5.974;2022-12-29T00:09:32;826.17;;;601.22;;
61673;SDS011;47573;43.832;5.974;2022-12-29T00:11:14;817.80;;;594.13;;
61673;SDS011;47573;43.832;5.974;2022-12-29T00:12:55;810.35;;;584.13;;
61673;SDS011;47573;43.832;5.974;2022-12-29T00:14:37;801.92;;;585.83;;
61673;SDS011;47573;43.832;5.974;2022-12-29T00:16:18;791.78;;;578.58;;
61673;SDS011;47573;43.832;5.974;2022-12-29T00:17:59;804.00;;;581.28;;
61673;SDS011;47573;43.832;5.974;2022-12-29T00:19:39;803.83;;;585.58;;
61673;SDS011;47573;43.832;5.974;2022-12-29T00:21:21;804.08;;;582.60;;
61673;SDS011;47573;43.832;5.974;2022-12-29T00:23:03;809.33;;;585.65;;
61673;SDS011;47573;43.832;5.974;2022-12-29T00:24:43;799.20;;;585.80;;
61673;SDS011;47573;43.832;5.974;2022-12-29T00:26:24;800.15;;;581.25;;
61673;SDS011;47573;43.832;5.974;2022-12-29T00:28:06;791.33;;;573.42;;
61673;SDS011;47573;43.832;5.974;2022-12-29T00:29:49;784.72;;;560.10;;
61673;SDS011;47573;43.832;5.974;2022-12-29T00:31:30;787.40;;;565.75;;
61673;SDS011;47573;43.832;5.974;2022-12-29T00:33:11;782.50;;;567.05;;
61673;SDS011;47573;43.832;5.974;2022-12-29T00:34:52;785.88;;;565.55;;
61673;SDS011;47573;43.832;5.974;2022-12-29T00:36:33;776.22;;;559.13;;
61673;SDS011;47573;43.832;5.974;2022-12-29T00:38:16;775.05;;;559.13;;
61673;SDS011;47573;43.832;5.974;2022-12-29T00:39:57;781.08;;;565.00;;
61673;SDS011;47573;43.832;5.974;2022-12-29T00:41:37;774.45;;;561.47;;
61673;SDS011;47573;43.832;5.974;2022-12-29T00:43:18;769.05;;;550.28;;
61673;SDS011;47573;43.832;5.974;2022-12-29T00:45:00;768.80;;;545.10;;
61673;SDS011;47573;43.832;5.974;2022-12-29T00:46:42;765.38;;;549.83;;
61673;SDS011;47573;43.832;5.974;2022-12-29T00:48:23;765.97;;;549.78;;
61673;SDS011;47573;43.832;5.974;2022-12-29T00:50:04;765.83;;;544.45;;
61673;SDS011;47573;43.832;5.974;2022-12-29T00:51:44;768.08;;;549.67;;
61673;SDS011;47573;43.832;5.974;2022-12-29T00:53:25;752.08;;;535.10;;
61673;SDS011;47573;43.832;5.974;2022-12-29T00:55:06;757.85;;;537.15;;
61673;SDS011;47573;43.832;5.974;2022-12-29T00:56:47;743.42;;;530.28;;
61673;SDS011;47573;43.832;5.974;2022-12-29T00:58:28;753.97;;;534.75;;
61673;SDS011;47573;43.832;5.974;2022-12-29T01:00:11;753.20;;;541.85;;
61673;SDS011;47573;43.832;5.974;2022-12-29T01:01:53;764.83;;;545.28;;
61673;SDS011;47573;43.832;5.974;2022-12-29T01:03:34;753.00;;;540.28;;
61673;SDS011;47573;43.832;5.974;2022-12-29T01:05:16;742.92;;;527.28;;
61673;SDS011;47573;43.832;5.974;2022-12-29T01:06:57;735.33;;;523.75;;
61673;SDS011;47573;43.832;5.974;2022-12-29T01:08:37;728.15;;;519.28;;
61673;SDS011;47573;43.832;5.974;2022-12-29T01:10:18;732.45;;;516.78;;
61673;SDS011;47573;43.832;5.974;2022-12-29T01:11:58;732.58;;;520.28;;
61673;SDS011;47573;43.832;5.974;2022-12-29T01:13:39;723.50;;;508.48;;
61673;SDS011;47573;43.832;5.974;2022-12-29T01:15:21;731.88;;;514.47;;
61673;SDS011;47573;43.832;5.974;2022-12-29T01:17:02;720.30;;;507.65;;
61673;SDS011;47573;43.832;5.974;2022-12-29T01:18:43;716.03;;;509.92;;
61673;SDS011;47573;43.832;5.974;2022-12-29T01:20:24;724.83;;;508.27;;
61673;SDS011;47573;43.832;5.974;2022-12-29T01:22:04;721.35;;;507.65;;
61673;SDS011;47573;43.832;5.974;2022-12-29T01:23:45;721.88;;;506.80;;
61673;SDS011;47573;43.832;5.974;2022-12-29T01:25:25;723.90;;;506.77;;
61673;SDS011;47573;43.832;5.974;2022-12-29T01:27:06;723.05;;;508.98;;
61673;SDS011;47573;43.832;5.974;2022-12-29T01:28:46;724.20;;;511.00;;
61673;SDS011;47573;43.832;5.974;2022-12-29T01:30:28;715.67;;;505.15;;
61673;SDS011;47573;43.832;5.974;2022-12-29T01:32:08;709.58;;;497.95;;
61673;SDS011;47573;43.832;5.974;2022-12-29T01:33:49;712.03;;;498.38;;
61673;SDS011;47573;43.832;5.974;2022-12-29T01:35:29;717.17;;;500.33;;
61673;SDS011;47573;43.832;5.974;2022-12-29T01:37:10;712.58;;;498.63;;
61673;SDS011;47573;43.832;5.974;2022-12-29T01:38:50;703.40;;;490.77;;
61673;SDS011;47573;43.832;5.974;2022-12-29T01:40:31;707.20;;;495.88;;
61673;SDS011;47573;43.832;5.974;2022-12-29T01:42:13;699.47;;;489.13;;
61673;SDS011;47573;43.832;5.974;2022-12-29T01:43:57;696.95;;;480.15;;
61673;SDS011;47573;43.832;5.974;2022-12-29T01:45:41;694.95;;;482.33;;
61673;SDS011;47573;43.832;5.974;2022-12-29T01:47:30;696.55;;;481.85;;
61673;SDS011;47573;43.832;5.974;2022-12-29T01:49:15;685.58;;;476.83;;
61673;SDS011;47573;43.832;5.974;2022-12-29T01:50:59;683.42;;;470.90;;
61673;SDS011;47573;43.832;5.974;2022-12-29T01:52:40;683.88;;;467.73;;
61673;SDS011;47573;43.832;5.974;2022-12-29T01:54:26;683.35;;;469.45;;
61673;SDS011;47573;43.832;5.974;2022-12-29T01:56:10;681.83;;;468.17;;
61673;SDS011;47573;43.832;5.974;2022-12-29T01:57:54;686.17;;;471.77;;
61673;SDS011;47573;43.832;5.974;2022-12-29T01:59:39;679.80;;;471.35;;
61673;SDS011;47573;43.832;5.974;2022-12-29T02:01:27;679.70;;;459.42;;
61673;SDS011;47573;43.832;5.974;2022-12-29T02:03:07;678.55;;;465.25;;
61673;SDS011;47573;43.832;5.974;2022-12-29T02:04:49;675.63;;;462.40;;
61673;SDS011;47573;43.832;5.974;2022-12-29T02:06:33;677.20;;;462.70;;
61673;SDS011;47573;43.832;5.974;2022-12-29T02:08:19;666.03;;;456.87;;
61673;SDS011;47573;43.832;5.974;2022-12-29T02:10:02;670.20;;;458.58;;
61673;SDS011;47573;43.832;5.974;2022-12-29T02:11:43;672.13;;;455.45;;
61673;SDS011;47573;43.832;5.974;2022-12-29T02:13:24;665.05;;;450.50;;
61673;SDS011;47573;43.832;5.974;2022-12-29T02:15:05;656.95;;;445.80;;
61673;SDS011;47573;43.832;5.974;2022-12-29T02:16:52;661.80;;;448.80;;
61673;SDS011;47573;43.832;5.974;2022-12-29T02:18:46;643.22;;;433.58;;
61673;SDS011;47573;43.832;5.974;2022-12-29T02:22:54;630.38;;;415.90;;
61673;SDS011;47573;43.832;5.974;2022-12-29T02:24:51;627.88;;;414.95;;
61673;SDS011;47573;43.832;5.974;2022-12-29T02:27:04;623.33;;;405.77;;
61673;SDS011;47573;43.832;5.974;2022-12-29T02:29:29;613.80;;;394.05;;
61673;SDS011;47573;43.832;5.974;2022-12-29T02:31:27;612.45;;;390.98;;
61673;SDS011;47573;43.832;5.974;2022-12-29T02:33:21;607.37;;;387.77;;
61673;SDS011;47573;43.832;5.974;2022-12-29T02:35:15;604.60;;;390.33;;
61673;SDS011;47573;43.832;5.974;2022-12-29T02:37:05;607.60;;;388.75;;
61673;SDS011;47573;43.832;5.974;2022-12-29T02:38:56;594.22;;;382.17;;
61673;SDS011;47573;43.832;5.974;2022-12-29T02:40:45;609.80;;;382.17;;
61673;SDS011;47573;43.832;5.974;2022-12-29T02:42:33;594.28;;;375.15;;
61673;SDS011;47573;43.832;5.974;2022-12-29T02:44:22;591.30;;;373.60;;
61673;SDS011;47573;43.832;5.974;2022-12-29T02:46:10;586.00;;;371.77;;
61673;SDS011;47573;43.832;5.974;2022-12-29T02:48:00;589.55;;;374.60;;
61673;SDS011;47573;43.832;5.974;2022-12-29T02:49:49;588.72;;;368.77;;
61673;SDS011;47573;43.832;5.974;2022-12-29T02:51:37;584.20;;;370.15;;
61673;SDS011;47573;43.832;5.974;2022-12-29T02:53:23;582.58;;;366.95;;
61673;SDS011;47573;43.832;5.974;2022-12-29T02:55:05;573.67;;;360.65;;
61673;SDS011;47573;43.832;5.974;2022-12-29T02:56:46;572.75;;;361.25;;
61673;SDS011;47573;43.832;5.974;2022-12-29T02:58:26;576.40;;;364.23;;
61673;SDS011;47573;43.832;5.974;2022-12-29T03:00:07;568.67;;;360.35;;
61673;SDS011;47573;43.832;5.974;2022-12-29T03:01:55;569.15;;;358.58;;
61673;SDS011;47573;43.832;5.974;2022-12-29T03:03:51;569.63;;;355.80;;
61673;SDS011;47573;43.832;5.974;2022-12-29T03:06:08;568.63;;;352.23;;
61673;SDS011;47573;43.832;5.974;2022-12-29T03:08:04;567.25;;;353.70;;
61673;SDS011;47573;43.832;5.974;2022-12-29T03:09:49;566.53;;;357.90;;
61673;SDS011;47573;43.832;5.974;2022-12-29T03:11:38;562.85;;;355.58;;
61673;SDS011;47573;43.832;5.974;2022-12-29T03:13:25;560.40;;;349.33;;
61673;SDS011;47573;43.832;5.974;2022-12-29T03:15:10;565.22;;;351.70;;
61673;SDS011;47573;43.832;5.974;2022-12-29T03:16:59;561.60;;;348.20;;
61673;SDS011;47573;43.832;5.974;2022-12-29T03:18:47;567.17;;;351.10;;
61673;SDS011;47573;43.832;5.974;2022-12-29T03:20:36;558.08;;;350.02;;
61673;SDS011;47573;43.832;5.974;2022-12-29T03:22:22;556.17;;;350.88;;
61673;SDS011;47573;43.832;5.974;2022-12-29T03:24:07;558.13;;;349.38;;
61673;SDS011;47573;43.832;5.974;2022-12-29T03:25:50;555.08;;;344.17;;
61673;SDS011;47573;43.832;5.974;2022-12-29T03:27:35;553.58;;;345.67;;
61673;SDS011;47573;43.832;5.974;2022-12-29T03:29:18;556.55;;;349.55;;
61673;SDS011;47573;43.832;5.974;2022-12-29T03:31:00;544.88;;;343.08;;
61673;SDS011;47573;43.832;5.974;2022-12-29T03:32:45;544.08;;;341.13;;
61673;SDS011;47573;43.832;5.974;2022-12-29T03:34:30;549.17;;;336.02;;
61673;SDS011;47573;43.832;5.974;2022-12-29T03:36:14;535.58;;;335.25;;
61673;SDS011;47573;43.832;5.974;2022-12-29T03:38:02;548.67;;;337.25;;
61673;SDS011;47573;43.832;5.974;2022-12-29T03:39:49;541.78;;;334.90;;
61673;SDS011;47573;43.832;5.974;2022-12-29T03:41:30;539.15;;;333.35;;
61673;SDS011;47573;43.832;5.974;2022-12-29T03:43:13;532.20;;;333.50;;
61673;SDS011;47573;43.832;5.974;2022-12-29T03:44:55;535.03;;;333.23;;
61673;SDS011;47573;43.832;5.974;2022-12-29T03:46:36;529.67;;;331.95;;
61673;SDS011;47573;43.832;5.974;2022-12-29T03:48:17;532.03;;;330.88;;
61673;SDS011;47573;43.832;5.974;2022-12-29T03:49:58;527.22;;;323.98;;
61673;SDS011;47573;43.832;5.974;2022-12-29T03:51:40;527.40;;;323.55;;
61673;SDS011;47573;43.832;5.974;2022-12-29T03:53:20;524.97;;;320.27;;
61673;SDS011;47573;43.832;5.974;2022-12-29T03:55:00;517.22;;;317.58;;
61673;SDS011;47573;43.832;5.974;2022-12-29T03:56:41;518.58;;;315.80;;
61673;SDS011;47573;43.832;5.974;2022-12-29T03:58:21;510.80;;;313.15;;
61673;SDS011;47573;43.832;5.974;2022-12-29T04:00:03;510.48;;;311.13;;
61673;SDS011;47573;43.832;5.974;2022-12-29T04:01:45;503.33;;;305.13;;
61673;SDS011;47573;43.832;5.974;2022-12-29T04:03:25;505.55;;;308.08;;
61673;SDS011;47573;43.832;5.974;2022-12-29T04:05:07;509.45;;;301.67;;
61673;SDS011;47573;43.832;5.974;2022-12-29T04:06:48;506.90;;;303.25;;
61673;SDS011;47573;43.832;5.974;2022-12-29T04:08:28;497.85;;;300.10;;
61673;SDS011;47573;43.832;5.974;2022-12-29T04:10:09;501.33;;;298.40;;
61673;SDS011;47573;43.832;5.974;2022-12-29T04:11:49;489.80;;;295.05;;
61673;SDS011;47573;43.832;5.974;2022-12-29T04:13:30;498.70;;;296.15;;
61673;SDS011;47573;43.832;5.974;2022-12-29T04:15:10;492.75;;;293.38;;
61673;SDS011;47573;43.832;5.974;2022-12-29T04:16:51;485.50;;;289.52;;
61673;SDS011;47573;43.832;5.974;2022-12-29T04:18:31;487.65;;;289.60;;
61673;SDS011;47573;43.832;5.974;2022-12-29T04:20:13;489.17;;;290.98;;
61673;SDS011;47573;43.832;5.974;2022-12-29T04:21:54;479.00;;;282.52;;
61673;SDS011;47573;43.832;5.974;2022-12-29T04:23:35;479.85;;;286.05;;
61673;SDS011;47573;43.832;5.974;2022-12-29T04:25:16;480.92;;;284.65;;
61673;SDS011;47573;43.832;5.974;2022-12-29T04:26:57;477.55;;;280.15;;
61673;SDS011;47573;43.832;5.974;2022-12-29T04:28:37;476.48;;;279.50;;
61673;SDS011;47573;43.832;5.974;2022-12-29T04:30:18;470.38;;;282.10;;
61673;SDS011;47573;43.832;5.974;2022-12-29T04:31:58;473.77;;;276.83;;
61673;SDS011;47573;43.832;5.974;2022-12-29T04:33:39;473.23;;;279.60;;
61673;SDS011;47573;43.832;5.974;2022-12-29T04:35:21;470.95;;;275.58;;
61673;SDS011;47573;43.832;5.974;2022-12-29T04:37:01;462.48;;;274.40;;
61673;SDS011;47573;43.832;5.974;2022-12-29T04:38:42;456.58;;;268.38;;
61673;SDS011;47573;43.832;5.974;2022-12-29T04:40:22;463.63;;;270.42;;
61673;SDS011;47573;43.832;5.974;2022-12-29T04:42:03;460.75;;;267.67;;
61673;SDS011;47573;43.832;5.974;2022-12-29T04:43:43;464.75;;;265.13;;
61673;SDS011;47573;43.832;5.974;2022-12-29T04:45:24;447.55;;;262.98;;
61673;SDS011;47573;43.832;5.974;2022-12-29T04:47:04;444.73;;;262.80;;
61673;SDS011;47573;43.832;5.974;2022-12-29T04:48:45;444.60;;;261.27;;
61673;SDS011;47573;43.832;5.974;2022-12-29T04:50:27;442.13;;;257.98;;
61673;SDS011;47573;43.832;5.974;2022-12-29T04:52:07;443.60;;;260.10;;
61673;SDS011;47573;43.832;5.974;2022-12-29T04:53:48;441.45;;;257.42;;
61673;SDS011;47573;43.832;5.974;2022-12-29T04:55:28;437.10;;;255.52;;
61673;SDS011;47573;43.832;5.974;2022-12-29T04:57:09;436.35;;;254.18;;
61673;SDS011;47573;43.832;5.974;2022-12-29T04:58:49;430.15;;;253.93;;
61673;SDS011;47573;43.832;5.974;2022-12-29T05:00:30;425.30;;;246.68;;
61673;SDS011;47573;43.832;5.974;2022-12-29T05:02:10;420.52;;;244.15;;
61673;SDS011;47573;43.832;5.974;2022-12-29T05:03:51;415.48;;;243.38;;
61673;SDS011;47573;43.832;5.974;2022-12-29T05:05:33;408.67;;;240.15;;
61673;SDS011;47573;43.832;5.974;2022-12-29T05:07:13;418.65;;;242.80;;
61673;SDS011;47573;43.832;5.974;2022-12-29T05:08:54;415.17;;;240.90;;
61673;SDS011;47573;43.832;5.974;2022-12-29T05:10:34;408.92;;;235.88;;
61673;SDS011;47573;43.832;5.974;2022-12-29T05:12:15;403.58;;;231.75;;
61673;SDS011;47573;43.832;5.974;2022-12-29T05:13:55;410.70;;;234.98;;
61673;SDS011;47573;43.832;5.974;2022-12-29T05:15:35;400.73;;;233.68;;
61673;SDS011;47573;43.832;5.974;2022-12-29T05:17:16;393.23;;;227.27;;
61673;SDS011;47573;43.832;5.974;2022-12-29T05:18:56;396.05;;;228.90;;
61673;SDS011;47573;43.832;5.974;2022-12-29T05:20:38;391.10;;;225.65;;
61673;SDS011;47573;43.832;5.974;2022-12-29T05:22:19;392.05;;;225.98;;
61673;SDS011;47573;43.832;5.974;2022-12-29T05:23:59;392.27;;;223.82;;
61673;SDS011;47573;43.832;5.974;2022-12-29T05:25:40;392.98;;;222.30;;
61673;SDS011;47573;43.832;5.974;2022-12-29T05:27:20;380.95;;;223.38;;
61673;SDS011;47573;43.832;5.974;2022-12-29T05:29:01;385.85;;;216.95;;
61673;SDS011;47573;43.832;5.974;2022-12-29T05:30:41;372.65;;;217.32;;
61673;SDS011;47573;43.832;5.974;2022-12-29T05:32:22;385.67;;;222.55;;
61673;SDS011;47573;43.832;5.974;2022-12-29T05:34:02;380.42;;;219.02;;
61673;SDS011;47573;43.832;5.974;2022-12-29T05:35:44;376.15;;;215.38;;
61673;SDS011;47573;43.832;5.974;2022-12-29T05:37:25;375.30;;;216.07;;
61673;SDS011;47573;43.832;5.974;2022-12-29T05:39:05;379.38;;;215.68;;
61673;SDS011;47573;43.832;5.974;2022-12-29T05:40:46;377.70;;;218.07;;
61673;SDS011;47573;43.832;5.974;2022-12-29T05:42:26;380.75;;;215.45;;
61673;SDS011;47573;43.832;5.974;2022-12-29T05:44:07;372.58;;;212.57;;
61673;SDS011;47573;43.832;5.974;2022-12-29T05:45:48;368.15;;;210.57;;
61673;SDS011;47573;43.832;5.974;2022-12-29T05:47:28;382.05;;;216.23;;
61673;SDS011;47573;43.832;5.974;2022-12-29T05:49:09;372.13;;;213.88;;
61673;SDS011;47573;43.832;5.974;2022-12-29T05:50:51;367.55;;;207.95;;
61673;SDS011;47573;43.832;5.974;2022-12-29T05:52:31;368.15;;;214.75;;
61673;SDS011;47573;43.832;5.974;2022-12-29T05:54:12;357.48;;;205.68;;
61673;SDS011;47573;43.832;5.974;2022-12-29T05:55:52;359.02;;;207.00;;
61673;SDS011;47573;43.832;5.974;2022-12-29T05:57:33;360.70;;;208.20;;
61673;SDS011;47573;43.832;5.974;2022-12-29T05:59:14;351.75;;;202.57;;
61673;SDS011;47573;43.832;5.974;2022-12-29T06:00:54;348.13;;;200.90;;
61673;SDS011;47573;43.832;5.974;2022-12-29T06:02:35;349.70;;;198.75;;
61673;SDS011;47573;43.832;5.974;2022-12-29T06:04:15;340.20;;;194.23;;
61673;SDS011;47573;43.832;5.974;2022-12-29T06:05:57;351.55;;;198.80;;
61673;SDS011;47573;43.832;5.974;2022-12-29T06:07:38;345.48;;;195.38;;
61673;SDS011;47573;43.832;5.974;2022-12-29T06:09:18;343.90;;;194.52;;
61673;SDS011;47573;43.832;5.974;2022-12-29T06:10:58;339.67;;;194.68;;
61673;SDS011;47573;43.832;5.974;2022-12-29T06:12:39;334.95;;;189.93;;
61673;SDS011;47573;43.832;5.974;2022-12-29T06:14:19;349.00;;;196.32;;
61673;SDS011;47573;43.832;5.974;2022-12-29T06:16:00;341.55;;;191.95;;
61673;SDS011;47573;43.832;5.974;2022-12-29T06:17:40;335.45;;;188.07;;
61673;SDS011;47573;43.832;5.974;2022-12-29T06:19:21;333.88;;;185.38;;
61673;SDS011;47573;43.832;5.974;2022-12-29T06:21:03;325.35;;;183.30;;
61673;SDS011;47573;43.832;5.974;2022-12-29T06:22:44;324.50;;;181.63;;
61673;SDS011;47573;43.832;5.974;2022-12-29T06:24:25;326.40;;;180.52;;
61673;SDS011;47573;43.832;5.974;2022-12-29T06:26:05;321.75;;;179.20;;
61673;SDS011;47573;43.832;5.974;2022-12-29T06:27:46;328.00;;;181.77;;
61673;SDS011;47573;43.832;5.974;2022-12-29T06:29:26;319.70;;;176.98;;
61673;SDS011;47573;43.832;5.974;2022-12-29T06:31:08;324.60;;;183.32;;
61673;SDS011;47573;43.832;5.974;2022-12-29T06:32:49;320.02;;;179.98;;
61673;SDS011;47573;43.832;5.974;2022-12-29T06:34:29;323.17;;;178.48;;
61673;SDS011;47573;43.832;5.974;2022-12-29T06:36:11;313.73;;;176.68;;
61673;SDS011;47573;43.832;5.974;2022-12-29T06:37:51;313.42;;;171.77;;
61673;SDS011;47573;43.832;5.974;2022-12-29T06:39:32;309.10;;;171.88;;
61673;SDS011;47573;43.832;5.974;2022-12-29T06:41:12;305.60;;;170.07;;
61673;SDS011;47573;43.832;5.974;2022-12-29T06:42:53;305.60;;;169.95;;
61673;SDS011;47573;43.832;5.974;2022-12-29T06:44:33;303.55;;;168.00;;
61673;SDS011;47573;43.832;5.974;2022-12-29T06:46:14;306.00;;;168.35;;
61673;SDS011;47573;43.832;5.974;2022-12-29T06:47:54;302.98;;;167.23;;
61673;SDS011;47573;43.832;5.974;2022-12-29T06:49:34;301.25;;;166.25;;
61673;SDS011;47573;43.832;5.974;2022-12-29T06:51:16;297.42;;;166.00;;
61673;SDS011;47573;43.832;5.974;2022-12-29T06:52:57;297.77;;;162.90;;
61673;SDS011;47573;43.832;5.974;2022-12-29T06:54:37;299.27;;;163.73;;
61673;SDS011;47573;43.832;5.974;2022-12-29T06:56:18;293.63;;;161.75;;
61673;SDS011;47573;43.832;5.974;2022-12-29T06:57:58;294.38;;;163.38;;
61673;SDS011;47573;43.832;5.974;2022-12-29T06:59:39;295.00;;;161.90;;
61673;SDS011;47573;43.832;5.974;2022-12-29T07:01:19;289.80;;;159.18;;
61673;SDS011;47573;43.832;5.974;2022-12-29T07:03:00;288.80;;;158.75;;
61673;SDS011;47573;43.832;5.974;2022-12-29T07:04:40;287.95;;;159.85;;
61673;SDS011;47573;43.832;5.974;2022-12-29T07:06:22;291.15;;;155.40;;
61673;SDS011;47573;43.832;5.974;2022-12-29T07:08:03;274.25;;;151.90;;
61673;SDS011;47573;43.832;5.974;2022-12-29T07:09:44;283.45;;;155.05;;
61673;SDS011;47573;43.832;5.974;2022-12-29T07:11:24;281.05;;;154.07;;
61673;SDS011;47573;43.832;5.974;2022-12-29T07:13:05;280.25;;;151.90;;
61673;SDS011;47573;43.832;5.974;2022-12-29T07:14:45;284.05;;;154.20;;
61673;SDS011;47573;43.832;5.974;2022-12-29T07:16:26;272.60;;;150.05;;
61673;SDS011;47573;43.832;5.974;2022-12-29T07:18:06;270.58;;;149.63;;
61673;SDS011;47573;43.832;5.974;2022-12-29T07:19:47;272.00;;;148.02;;
61673;SDS011;47573;43.832;5.974;2022-12-29T07:21:28;265.88;;;148.50;;
61673;SDS011;47573;43.832;5.974;2022-12-29T07:23:09;266.38;;;147.32;;
61673;SDS011;47573;43.832;5.974;2022-12-29T07:24:49;267.83;;;147.55;;
61673;SDS011;47573;43.832;5.974;2022-12-29T07:26:30;262.77;;;145.90;;
61673;SDS011;47573;43.832;5.974;2022-12-29T07:28:11;267.45;;;146.80;;
61673;SDS011;47573;43.832;5.974;2022-12-29T07:29:51;257.75;;;144.15;;
61673;SDS011;47573;43.832;5.974;2022-12-29T07:31:31;261.23;;;143.25;;
61673;SDS011;47573;43.832;5.974;2022-12-29T07:33:12;259.38;;;141.82;;
61673;SDS011;47573;43.832;5.974;2022-12-29T07:34:52;252.30;;;142.05;;
61673;SDS011;47573;43.832;5.974;2022-12-29T07:36:34;256.48;;;142.73;;
61673;SDS011;47573;43.832;5.974;2022-12-29T07:38:15;250.80;;;140.38;;
61673;SDS011;47573;43.832;5.974;2022-12-29T07:39:55;252.18;;;139.18;;
61673;SDS011;47573;43.832;5.974;2022-12-29T07:41:36;249.77;;;136.65;;
61673;SDS011;47573;43.832;5.974;2022-12-29T07:43:16;250.25;;;138.60;;
61673;SDS011;47573;43.832;5.974;2022-12-29T07:44:57;256.13;;;138.52;;
61673;SDS011;47573;43.832;5.974;2022-12-29T07:46:37;252.90;;;139.38;;
61673;SDS011;47573;43.832;5.974;2022-12-29T07:48:18;241.18;;;135.23;;
61673;SDS011;47573;43.832;5.974;2022-12-29T07:49:58;245.20;;;136.02;;
61673;SDS011;47573;43.832;5.974;2022-12-29T07:51:40;242.60;;;136.43;;
61673;SDS011;47573;43.832;5.974;2022-12-29T07:53:21;243.77;;;133.43;;
61673;SDS011;47573;43.832;5.974;2022-12-29T07:55:01;237.07;;;133.60;;
61673;SDS011;47573;43.832;5.974;2022-12-29T07:56:41;239.23;;;132.88;;
61673;SDS011;47573;43.832;5.974;2022-12-29T07:58:22;233.77;;;130.50;;
61673;SDS011;47573;43.832;5.974;2022-12-29T08:00:03;234.57;;;129.48;;
61673;SDS011;47573;43.832;5.974;2022-12-29T08:01:44;236.35;;;130.23;;
61673;SDS011;47573;43.832;5.974;2022-12-29T08:03:24;222.70;;;128.15;;
61673;SDS011;47573;43.832;5.974;2022-12-29T08:05:05;226.65;;;126.60;;
61673;SDS011;47573;43.832;5.974;2022-12-29T08:06:47;225.13;;;126.95;;
61673;SDS011;47573;43.832;5.974;2022-12-29T08:08:28;226.05;;;125.90;;
61673;SDS011;47573;43.832;5.974;2022-12-29T08:10:08;229.48;;;128.25;;
61673;SDS011;47573;43.832;5.974;2022-12-29T08:11:49;216.32;;;121.32;;
61673;SDS011;47573;43.832;5.974;2022-12-29T08:13:29;209.73;;;117.80;;
61673;SDS011;47573;43.832;5.974;2022-12-29T08:15:10;213.30;;;120.25;;
61673;SDS011;47573;43.832;5.974;2022-12-29T08:16:51;217.43;;;121.40;;
61673;SDS011;47573;43.832;5.974;2022-12-29T08:18:32;222.77;;;123.22;;
61673;SDS011;47573;43.832;5.974;2022-12-29T08:20:12;212.25;;;118.28;;
61673;SDS011;47573;43.832;5.974;2022-12-29T08:21:54;963.30;;;472.30;;
61673;SDS011;47573;43.832;5.974;2022-12-29T08:23:34;1134.10;;;519.20;;
61673;SDS011;47573;43.832;5.974;2022-12-29T08:25:15;1148.03;;;512.80;;
61673;SDS011;47573;43.832;5.974;2022-12-29T08:26:56;671.67;;;283.17;;
61673;SDS011;47573;43.832;5.974;2022-12-29T08:28:36;1273.68;;;571.53;;
61673;SDS011;47573;43.832;5.974;2022-12-29T08:30:17;1199.55;;;450.40;;
61673;SDS011;47573;43.832;5.974;2022-12-29T08:31:57;1780.95;;;653.17;;
61673;SDS011;47573;43.832;5.974;2022-12-29T08:33:38;1395.68;;;498.52;;
61673;SDS011;47573;43.832;5.974;2022-12-29T08:35:18;1989.30;;;666.17;;
61673;SDS011;47573;43.832;5.974;2022-12-29T08:37:00;1258.18;;;473.80;;
61673;SDS011;47573;43.832;5.974;2022-12-29T08:38:41;821.05;;;308.52;;
61673;SDS011;47573;43.832;5.974;2022-12-29T08:40:21;1641.95;;;603.38;;
61673;SDS011;47573;43.832;5.974;2022-12-29T08:42:02;1104.22;;;418.60;;
61673;SDS011;47573;43.832;5.974;2022-12-29T08:43:45;900.03;;;345.88;;
61673;SDS011;47573;43.832;5.974;2022-12-29T08:45:25;1444.30;;;542.45;;
61673;SDS011;47573;43.832;5.974;2022-12-29T08:47:06;839.42;;;314.25;;
61673;SDS011;47573;43.832;5.974;2022-12-29T08:48:46;861.00;;;344.70;;
61673;SDS011;47573;43.832;5.974;2022-12-29T08:50:27;1081.25;;;436.38;;
61673;SDS011;47573;43.832;5.974;2022-12-29T08:52:08;1259.32;;;482.38;;
61673;SDS011;47573;43.832;5.974;2022-12-29T08:53:49;1729.72;;;664.97;;
61673;SDS011;47573;43.832;5.974;2022-12-29T08:55:29;801.80;;;322.10;;
61673;SDS011;47573;43.832;5.974;2022-12-29T08:57:10;1161.38;;;490.08;;
61673;SDS011;47573;43.832;5.974;2022-12-29T08:58:50;668.35;;;269.50;;
61673;SDS011;47573;43.832;5.974;2022-12-29T09:00:31;787.70;;;312.55;;
61673;SDS011;47573;43.832;5.974;2022-12-29T09:02:12;684.88;;;270.98;;
61673;SDS011;47573;43.832;5.974;2022-12-29T09:03:53;535.20;;;214.88;;
61673;SDS011;47573;43.832;5.974;2022-12-29T09:05:33;533.75;;;217.15;;
61673;SDS011;47573;43.832;5.974;2022-12-29T09:07:15;477.38;;;187.95;;
61673;SDS011;47573;43.832;5.974;2022-12-29T09:08:56;448.90;;;178.57;;
61673;SDS011;47573;43.832;5.974;2022-12-29T09:10:36;382.83;;;163.00;;
61673;SDS011;47573;43.832;5.974;2022-12-29T09:12:17;343.08;;;149.00;;
61673;SDS011;47573;43.832;5.974;2022-12-29T09:13:57;338.50;;;151.82;;
61673;SDS011;47573;43.832;5.974;2022-12-29T09:15:38;354.83;;;157.27;;
61673;SDS011;47573;43.832;5.974;2022-12-29T09:17:18;278.65;;;136.80;;
61673;SDS011;47573;43.832;5.974;2022-12-29T09:18:59;322.42;;;146.15;;
61673;SDS011;47573;43.832;5.974;2022-12-29T09:20:40;306.35;;;139.40;;
61673;SDS011;47573;43.832;5.974;2022-12-29T09:22:22;282.60;;;139.10;;
61673;SDS011;47573;43.832;5.974;2022-12-29T09:24:02;249.07;;;130.07;;
61673;SDS011;47573;43.832;5.974;2022-12-29T09:25:43;216.48;;;119.70;;
61673;SDS011;47573;43.832;5.974;2022-12-29T09:27:23;220.82;;;120.68;;
61673;SDS011;47573;43.832;5.974;2022-12-29T09:29:04;202.50;;;117.53;;
61673;SDS011;47573;43.832;5.974;2022-12-29T09:30:44;370.08;;;164.80;;
61673;SDS011;47573;43.832;5.974;2022-12-29T09:32:25;286.40;;;135.43;;
61673;SDS011;47573;43.832;5.974;2022-12-29T09:34:05;233.27;;;122.22;;
61673;SDS011;47573;43.832;5.974;2022-12-29T09:35:49;219.85;;;123.50;;
61673;SDS011;47573;43.832;5.974;2022-12-29T09:37:33;260.70;;;132.02;;
61673;SDS011;47573;43.832;5.974;2022-12-29T09:39:13;238.00;;;126.90;;
61673;SDS011;47573;43.832;5.974;2022-12-29T09:40:55;231.10;;;127.07;;
61673;SDS011;47573;43.832;5.974;2022-12-29T09:42:37;224.60;;;123.97;;